Time;durP1;ratioP1;P1;durP2;ratioP2;P2;SDS_P1;SDS_P2;PMS_P1;PMS_P2;Temp;Humidity;BMP_temperature;BMP_pressure;BME280_temperature;BME280_humidity;BME280_pressure;Samples;Min_cycle;Max_cycle;Signal;HPM_P1;HPM_P2
2022/04/29 00:00:53;;;;;;;8.40;7.70;;;;;;;11.66;60.46;95429.06;5035780;28;20206;-67
2022/04/29 00:03:22;;;;;;;9.38;8.48;;;;;;;11.68;60.26;95440.56;5035950;28;20615;-66
2022/04/29 00:05:49;;;;;;;8.40;7.60;;;;;;;11.64;60.13;95434.13;5036027;28;20202;-66
2022/04/29 00:08:18;;;;;;;8.18;7.47;;;;;;;11.66;60.26;95423.53;5035632;28;20209;-66
2022/04/29 00:10:46;;;;;;;7.75;7.15;;;;;;;11.66;60.50;95428.25;5018335;28;20564;-66
2022/04/29 00:13:15;;;;;;;8.02;7.43;;;;;;;11.65;60.39;95432.16;5035974;28;20194;-66
2022/04/29 00:15:45;;;;;;;7.82;7.18;;;;;;;11.63;61.10;95421.47;5035951;28;20198;-66
2022/04/29 00:18:13;;;;;;;7.68;7.07;;;;;;;11.63;60.53;95423.44;5034977;28;20209;-66
2022/04/29 00:20:41;;;;;;;8.48;7.55;;;;;;;11.59;60.96;95428.84;5017935;28;20223;-66
2022/04/29 00:23:10;;;;;;;8.50;7.80;;;;;;;11.54;60.61;95432.66;5035657;28;20625;-66
2022/04/29 00:25:39;;;;;;;8.88;8.18;;;;;;;11.56;60.95;95426.78;5017629;28;20225;-66
2022/04/29 00:28:07;;;;;;;8.20;7.60;;;;;;;11.54;60.62;95426.31;5015745;28;20198;-66
2022/04/29 00:30:35;;;;;;;8.38;7.68;;;;;;;11.55;60.76;95427.94;5015496;28;20521;-66
2022/04/29 00:33:05;;;;;;;9.07;8.38;;;;;;;11.54;61.09;95421.59;4998373;28;20210;-66
2022/04/29 00:35:33;;;;;;;8.43;7.68;;;;;;;11.58;61.53;95421.69;5015617;28;20293;-67
2022/04/29 00:38:01;;;;;;;9.63;8.82;;;;;;;11.61;61.21;95422.97;5015536;28;20183;-67
2022/04/29 00:40:31;;;;;;;8.65;7.95;;;;;;;11.58;60.92;95418.94;5015225;28;20211;-66
2022/04/29 00:42:59;;;;;;;9.15;8.35;;;;;;;11.60;60.58;95416.63;4998781;28;20649;-66
2022/04/29 00:45:28;;;;;;;8.70;8.00;;;;;;;11.62;60.44;95416.28;5016668;28;20194;-66
2022/04/29 00:47:56;;;;;;;8.98;8.18;;;;;;;11.60;60.28;95415.84;5015230;28;20195;-66
2022/04/29 00:50:27;;;;;;;9.77;8.82;;;;;;;11.60;60.46;95413.06;5016326;28;20189;-66
2022/04/29 00:52:59;;;;;;;9.02;8.07;;;;;;;11.55;59.92;95412.19;4999440;28;20210;-66
2022/04/29 00:55:27;;;;;;;9.35;8.55;;;;;;;11.57;60.32;95409.06;4999706;28;20206;-67
2022/04/29 00:57:59;;;;;;;8.73;8.00;;;;;;;11.59;60.69;95411.47;5016086;28;20195;-66
2022/04/29 01:00:27;;;;;;;9.93;8.98;;;;;;;11.56;59.99;95402.72;4999436;28;20207;-66
2022/04/29 01:02:56;;;;;;;9.38;8.50;;;;;;;11.59;60.40;95404.00;5016654;28;20195;-66
2022/04/29 01:05:26;;;;;;;8.90;8.15;;;;;;;11.59;59.78;95405.94;4998905;28;20204;-66
2022/04/29 01:07:55;;;;;;;9.25;8.43;;;;;;;11.58;59.83;95402.34;5017272;28;20191;-66
2022/04/29 01:10:23;;;;;;;8.70;7.90;;;;;;;11.58;59.79;95399.59;5002918;28;20280;-66
2022/04/29 01:12:54;;;;;;;9.70;8.80;;;;;;;11.60;60.04;95396.50;5002490;28;20199;-66
2022/04/29 01:15:22;;;;;;;9.82;8.93;;;;;;;11.61;59.98;95396.13;5018902;28;20225;-66
2022/04/29 01:17:54;;;;;;;9.60;8.73;;;;;;;11.62;59.96;95399.69;5019479;28;20191;-66
2022/04/29 01:20:29;;;;;;;10.40;9.50;;;;;;;11.61;59.98;95396.13;5019064;28;20239;-66
2022/04/29 01:23:04;;;;;;;9.90;9.00;;;;;;;11.60;60.17;95391.78;5002387;28;20203;-66
2022/04/29 01:25:33;;;;;;;10.05;9.05;;;;;;;11.60;60.44;95402.81;5002208;28;20187;-66
2022/04/29 01:28:02;;;;;;;10.02;9.13;;;;;;;11.62;60.64;95400.53;5037985;28;20202;-66
2022/04/29 01:30:31;;;;;;;9.75;8.85;;;;;;;11.62;60.88;95396.94;5038612;28;20182;-66
2022/04/29 01:33:01;;;;;;;10.02;9.13;;;;;;;11.66;60.76;95397.88;5021290;28;20190;-66
2022/04/29 01:35:29;;;;;;;10.10;9.15;;;;;;;11.66;60.65;95395.91;5020939;28;20233;-66
2022/04/29 01:37:57;;;;;;;10.35;9.15;;;;;;;11.66;61.25;95390.38;5037364;28;20206;-66
2022/04/29 01:40:27;;;;;;;10.13;9.13;;;;;;;11.66;60.99;95392.34;5020929;28;20209;-66
2022/04/29 01:42:55;;;;;;;10.48;9.57;;;;;;;11.65;60.96;95388.75;5021527;28;20630;-67
2022/04/29 01:45:24;;;;;;;10.60;9.05;;;;;;;11.63;60.39;95391.06;5021517;28;20194;-66
2022/04/29 01:47:52;;;;;;;9.90;9.00;;;;;;;11.64;60.72;95400.16;5039350;28;20201;-66
2022/04/29 01:50:23;;;;;;;9.50;8.70;;;;;;;11.62;60.71;95400.53;5005249;28;20218;-66
2022/04/29 01:52:54;;;;;;;10.55;9.43;;;;;;;11.60;60.53;95385.44;5040152;28;20205;-66
2022/04/29 01:55:22;;;;;;;10.02;9.13;;;;;;;11.59;60.13;95401.22;5039953;28;20210;-66
2022/04/29 01:57:56;;;;;;;10.00;9.10;;;;;;;11.54;60.25;95398.69;5022097;28;20203;-65
2022/04/29 02:00:25;;;;;;;10.65;9.05;;;;;;;11.52;60.83;95392.75;5039607;28;20196;-65
2022/04/29 02:02:55;;;;;;;8.82;8.07;;;;;;;11.50;60.54;95395.84;5038925;28;20221;-66
2022/04/29 02:05:23;;;;;;;9.75;8.93;;;;;;;11.50;60.75;95401.34;5020884;28;20207;-66
2022/04/29 02:07:52;;;;;;;10.23;9.25;;;;;;;11.45;60.83;95398.84;5021191;28;20203;-66
2022/04/29 02:10:21;;;;;;;10.15;9.18;;;;;;;11.42;60.87;95393.22;5038285;28;20179;-66
2022/04/29 02:12:49;;;;;;;8.93;8.13;;;;;;;11.40;60.81;95404.63;5039396;28;20676;-66
2022/04/29 02:15:20;;;;;;;10.23;9.32;;;;;;;11.38;61.04;95403.38;5022521;28;20206;-66
2022/04/29 02:17:48;;;;;;;9.65;8.85;;;;;;;11.33;60.90;95399.69;5039755;28;20187;-65
2022/04/29 02:20:16;;;;;;;10.25;9.35;;;;;;;11.32;60.47;95398.06;5038628;28;20240;-65
2022/04/29 02:22:44;;;;;;;10.55;9.55;;;;;;;11.31;60.65;95396.47;5039892;28;20194;-65
2022/04/29 02:25:13;;;;;;;9.15;8.35;;;;;;;11.34;60.67;95397.75;5038461;28;20200;-66
2022/04/29 02:27:41;;;;;;;9.07;8.27;;;;;;;11.35;60.55;95402.09;5037925;28;20249;-65
2022/04/29 02:30:10;;;;;;;9.55;8.75;;;;;;;11.34;60.72;95403.25;5039460;28;20209;-66
2022/04/29 02:32:41;;;;;;;9.55;8.73;;;;;;;11.36;60.55;95406.47;5039526;28;20265;-66
2022/04/29 02:35:09;;;;;;;9.40;8.55;;;;;;;11.37;60.40;95405.34;5039448;28;20254;-65
2022/04/29 02:37:38;;;;;;;10.65;9.65;;;;;;;11.37;60.77;95405.34;5038799;28;20194;-65
2022/04/29 02:40:07;;;;;;;9.38;8.57;;;;;;;11.37;60.81;95401.78;5037825;28;20191;-66
2022/04/29 02:42:35;;;;;;;9.93;9.05;;;;;;;11.40;60.56;95406.56;5021881;28;20310;-66
2022/04/29 02:45:05;;;;;;;9.70;8.75;;;;;;;11.40;60.47;95407.41;5020987;28;20194;-66
2022/04/29 02:47:33;;;;;;;9.63;8.73;;;;;;;11.39;60.82;95405.78;5037744;28;20197;-66
2022/04/29 02:50:01;;;;;;;8.95;8.15;;;;;;;11.40;60.57;95398.28;5036934;28;20558;-66
2022/04/29 02:52:32;;;;;;;9.32;8.45;;;;;;;11.39;60.57;95404.97;5037610;28;20189;-66
2022/04/29 02:55:02;;;;;;;9.27;8.48;;;;;;;11.35;60.93;95404.88;5037584;28;20209;-67
2022/04/29 02:57:30;;;;;;;9.20;8.40;;;;;;;11.37;60.98;95405.34;5014124;28;20245;-68
2022/04/29 02:59:58;;;;;;;9.43;8.63;;;;;;;11.34;61.33;95408.78;5037531;28;20189;-67
2022/04/29 03:02:27;;;;;;;9.40;8.60;;;;;;;11.32;61.22;95405.56;5019831;28;20221;-67
2022/04/29 03:04:55;;;;;;;9.60;8.70;;;;;;;11.30;61.21;95405.91;5020936;28;20194;-67
2022/04/29 03:07:24;;;;;;;9.90;9.10;;;;;;;11.31;61.74;95404.75;5037709;28;20212;-67
2022/04/29 03:09:52;;;;;;;9.70;8.80;;;;;;;11.33;61.42;95409.94;5037682;28;20194;-67
2022/04/29 03:12:23;;;;;;;10.75;9.80;;;;;;;11.35;61.58;95406.81;5036569;28;20202;-67
2022/04/29 03:15:15;;;;;;;9.98;9.00;;;;;;;11.35;61.70;95412.34;5020964;28;20198;-67
2022/04/29 03:20:30;;;;;;;9.52;8.73;;;;;;;11.33;61.67;95413.50;5037993;28;20213;-66
2022/04/29 03:23:00;;;;;;;9.50;8.63;;;;;;;11.32;61.48;95422.13;5036520;28;20199;-66
2022/04/29 03:25:29;;;;;;;9.43;8.52;;;;;;;11.30;61.71;95410.63;5019535;28;20293;-66
2022/04/29 03:27:57;;;;;;;10.93;9.93;;;;;;;11.29;62.06;95409.00;5036568;28;20548;-66
2022/04/29 03:30:26;;;;;;;10.25;9.25;;;;;;;11.29;62.02;95411.78;5019175;28;20624;-66
2022/04/29 03:32:54;;;;;;;10.65;9.65;;;;;;;11.24;62.20;95404.53;5037614;28;20187;-66
2022/04/29 03:35:22;;;;;;;10.65;9.65;;;;;;;11.26;62.18;95404.22;5036359;28;20282;-69
2022/04/29 03:37:52;;;;;;;10.35;9.35;;;;;;;11.25;62.21;95414.44;5020359;28;20194;-70
2022/04/29 03:40:23;;;;;;;10.77;9.88;;;;;;;11.25;62.54;95417.19;5036460;28;20210;-71
2022/04/29 03:42:54;;;;;;;11.07;10.02;;;;;;;11.25;62.46;95422.72;5036770;28;20246;-67
2022/04/29 03:45:24;;;;;;;9.48;8.68;;;;;;;11.26;62.57;95423.53;5037574;28;20187;-66
2022/04/29 03:47:52;;;;;;;9.80;8.90;;;;;;;11.23;62.45;95421.47;5037149;28;20273;-67
2022/04/29 03:50:23;;;;;;;9.88;9.07;;;;;;;11.23;62.73;95427.00;5019367;28;20606;-66
2022/04/29 03:52:52;;;;;;;10.10;9.10;;;;;;;11.23;62.59;95429.75;5020356;28;20213;-67
2022/04/29 03:55:26;;;;;;;9.88;9.00;;;;;;;11.21;62.99;95429.28;5036789;28;20201;-67
2022/04/29 03:57:55;;;;;;;9.48;8.57;;;;;;;11.22;62.50;95437.25;5019523;28;20197;-67
2022/04/29 04:00:24;;;;;;;9.73;8.82;;;;;;;11.22;63.38;95434.47;5036638;28;20190;-67
2022/04/29 04:02:53;;;;;;;9.07;8.25;;;;;;;11.23;63.64;95432.53;5019177;28;20214;-68
2022/04/29 04:05:21;;;;;;;9.75;8.80;;;;;;;11.22;63.32;95431.72;5036096;28;20202;-66
2022/04/29 04:07:49;;;;;;;10.50;9.50;;;;;;;11.21;63.44;95434.81;5036245;28;20198;-67
2022/04/29 04:10:16;;;;;;;10.52;9.52;;;;;;;11.21;63.29;95438.38;5036701;28;20200;-67
2022/04/29 04:12:48;;;;;;;10.45;9.55;;;;;;;11.21;63.19;95437.56;5019630;28;20190;-67
2022/04/29 04:15:18;;;;;;;9.80;8.80;;;;;;;11.20;63.53;95444.25;5035546;28;20294;-67
2022/04/29 04:17:46;;;;;;;10.48;9.57;;;;;;;11.21;63.51;95437.56;5018735;28;20201;-67
2022/04/29 04:20:19;;;;;;;9.50;8.70;;;;;;;11.19;63.16;95428.84;5036154;28;20209;-66
2022/04/29 04:22:47;;;;;;;10.05;9.05;;;;;;;11.19;63.51;95437.94;5035963;28;20214;-66
2022/04/29 04:25:15;;;;;;;10.63;9.63;;;;;;;11.20;63.59;95431.25;5036323;28;20202;-67
2022/04/29 04:27:43;;;;;;;10.57;9.55;;;;;;;11.21;63.78;95429.28;5036213;28;20685;-67
2022/04/29 04:30:13;;;;;;;9.93;9.02;;;;;;;11.23;63.46;95432.53;5035803;28;20207;-66
2022/04/29 04:32:40;;;;;;;10.40;9.40;;;;;;;11.24;63.85;95436.88;5037499;28;20201;-66
2022/04/29 04:35:09;;;;;;;10.52;9.52;;;;;;;11.22;64.15;95439.16;5020243;28;20206;-66
2022/04/29 04:37:38;;;;;;;9.90;8.98;;;;;;;11.25;63.89;95435.72;5018884;28;20207;-66
2022/04/29 04:40:07;;;;;;;10.60;9.55;;;;;;;11.23;64.38;95443.56;5036787;28;20520;-67
2022/04/29 04:42:44;;;;;;;11.63;9.73;;;;;;;11.21;64.18;95445.84;5019527;28;20225;-69
2022/04/29 04:45:11;;;;;;;11.60;10.40;;;;;;;11.21;64.58;95446.66;5039242;28;20202;-67
2022/04/29 04:47:41;;;;;;;13.18;11.88;;;;;;;11.26;64.76;95446.44;5039527;28;20462;-67
2022/04/29 04:50:08;;;;;;;13.10;11.80;;;;;;;11.28;64.92;95444.09;5039198;28;20766;-69
2022/04/29 04:52:36;;;;;;;13.77;12.38;;;;;;;11.31;65.10;95448.13;5038770;28;20474;-69
2022/04/29 04:55:05;;;;;;;12.63;11.32;;;;;;;11.32;65.16;95450.53;5039905;28;20210;-66
2022/04/29 04:57:33;;;;;;;12.52;11.20;;;;;;;11.39;65.77;95446.41;5038763;28;20572;-66
2022/04/29 05:00:02;;;;;;;13.68;12.27;;;;;;;11.39;65.29;95440.88;5039433;28;20189;-66
2022/04/29 05:02:30;;;;;;;12.57;11.32;;;;;;;11.37;65.44;95444.00;5039459;28;20206;-66
2022/04/29 05:04:59;;;;;;;11.95;10.75;;;;;;;11.40;65.23;95448.81;5022371;28;20298;-67
2022/04/29 05:07:28;;;;;;;12.40;11.10;;;;;;;11.41;65.07;95452.38;5039066;28;20271;-67
2022/04/29 05:09:56;;;;;;;13.52;12.23;;;;;;;11.41;64.97;95439.38;5039671;28;20187;-67
2022/04/29 05:12:24;;;;;;;13.95;12.40;;;;;;;11.43;64.92;95439.00;5021543;28;20195;-67
2022/04/29 05:14:52;;;;;;;13.88;12.48;;;;;;;11.45;65.61;95433.97;5039276;28;20253;-66
2022/04/29 05:17:23;;;;;;;12.27;11.07;;;;;;;11.50;64.94;95442.00;5039245;28;20182;-67
2022/04/29 05:19:53;;;;;;;12.32;11.13;;;;;;;11.52;65.29;95434.97;5038768;28;20610;-67
2022/04/29 05:22:25;;;;;;;13.30;11.80;;;;;;;11.55;64.96;95428.75;5021496;28;20313;-67
2022/04/29 05:24:54;;;;;;;12.38;11.07;;;;;;;11.60;65.07;95435.19;5039258;28;20281;-67
2022/04/29 05:27:22;;;;;;;12.35;11.05;;;;;;;11.65;65.63;95437.69;5021375;28;20789;-66
2022/04/29 05:29:50;;;;;;;12.90;11.60;;;;;;;11.69;65.36;95444.09;5020949;28;20210;-67
2022/04/29 05:32:19;;;;;;;12.73;11.48;;;;;;;11.69;64.74;95436.66;5021361;28;20372;-69
2022/04/29 05:34:47;;;;;;;13.13;11.82;;;;;;;11.68;64.93;95436.97;5021853;28;20195;-68
2022/04/29 05:37:15;;;;;;;12.88;11.57;;;;;;;11.69;64.82;95433.06;5021644;28;20260;-67
2022/04/29 05:42:34;;;;;;;11.88;10.57;;;;;;;11.66;65.12;95439.31;5037206;28;20303;-67
2022/04/29 05:45:05;;;;;;;12.52;10.85;;;;;;;11.70;64.82;95435.50;5038000;28;20233;-68
2022/04/29 05:47:33;;;;;;;11.88;10.77;;;;;;;11.70;64.72;95429.97;5037600;28;20217;-68
2022/04/29 05:50:03;;;;;;;11.48;10.43;;;;;;;11.73;64.86;95439.50;5039929;28;20190;-70
2022/04/29 05:52:31;;;;;;;10.88;9.90;;;;;;;11.71;64.08;95439.84;5039918;28;20178;-70
2022/04/29 05:55:00;;;;;;;11.40;10.40;;;;;;;11.71;64.65;95442.63;5037323;28;20606;-70
2022/04/29 05:57:30;;;;;;;11.98;10.88;;;;;;;11.76;64.79;95445.16;5038768;28;20183;-69
2022/04/29 05:59:58;;;;;;;12.27;11.25;;;;;;;11.79;64.84;95441.66;5022086;28;20206;-70
2022/04/29 06:02:27;;;;;;;12.88;11.57;;;;;;;11.82;64.80;95448.44;5020624;28;20222;-68
2022/04/29 06:04:55;;;;;;;11.63;10.57;;;;;;;11.81;64.42;95452.38;5022692;28;20199;-67
2022/04/29 06:07:24;;;;;;;11.60;10.50;;;;;;;11.80;64.51;95456.28;5040082;28;20202;-70
2022/04/29 06:09:52;;;;;;;11.98;10.88;;;;;;;11.80;64.36;95457.09;5024358;28;20203;-69
2022/04/29 06:12:21;;;;;;;12.40;11.18;;;;;;;11.82;64.69;95463.06;5040978;28;20217;-71
2022/04/29 06:14:49;;;;;;;11.27;10.18;;;;;;;11.79;64.36;95465.72;5041593;28;20202;-72
2022/04/29 06:17:16;;;;;;;12.43;11.00;;;;;;;11.76;64.80;95464.50;5039780;28;20199;-69
2022/04/29 06:19:44;;;;;;;10.98;10.00;;;;;;;11.74;64.53;95472.31;5020978;28;20203;-69
2022/04/29 06:22:12;;;;;;;11.82;10.73;;;;;;;11.79;64.72;95471.25;5020571;28;20226;-68
2022/04/29 06:24:40;;;;;;;11.45;10.45;;;;;;;11.83;64.46;95466.63;5021040;28;20214;-68
2022/04/29 06:27:10;;;;;;;12.20;11.00;;;;;;;11.81;64.65;95468.97;5020310;28;20238;-69
2022/04/29 06:29:43;;;;;;;12.25;11.05;;;;;;;11.81;64.93;95464.22;5038168;28;20182;-69
2022/04/29 06:32:11;;;;;;;12.35;11.15;;;;;;;11.84;64.65;95461.94;5037483;28;20179;-69
2022/04/29 06:34:39;;;;;;;11.60;10.50;;;;;;;11.93;64.93;95466.16;5021085;28;20208;-69
2022/04/29 06:37:06;;;;;;;12.10;11.00;;;;;;;11.97;64.28;95458.78;5037152;28;20201;-69
2022/04/29 06:39:37;;;;;;;10.93;9.93;;;;;;;12.01;64.27;95464.41;5039313;28;20194;-71
2022/04/29 06:42:05;;;;;;;11.55;10.48;;;;;;;12.09;64.58;95466.22;5038334;28;20260;-69
2022/04/29 06:44:33;;;;;;;11.40;10.30;;;;;;;12.13;63.86;95469.88;5037017;28;20187;-69
2022/04/29 06:47:03;;;;;;;11.43;10.38;;;;;;;12.18;64.63;95463.28;5037209;28;20201;-68
2022/04/29 06:49:33;;;;;;;11.82;10.73;;;;;;;12.25;64.42;95463.50;5037553;28;20198;-69
2022/04/29 06:52:02;;;;;;;11.93;10.70;;;;;;;12.29;63.70;95454.13;5020359;28;20622;-69
2022/04/29 06:54:29;;;;;;;11.35;10.35;;;;;;;12.37;63.82;95449.56;5019326;28;20230;-68
2022/04/29 06:56:57;;;;;;;11.10;10.00;;;;;;;12.43;64.11;95456.47;5036021;28;20210;-68
2022/04/29 06:59:26;;;;;;;11.35;10.18;;;;;;;12.44;63.58;95441.47;5019587;28;20626;-68
2022/04/29 07:01:55;;;;;;;11.05;9.95;;;;;;;12.50;63.15;95459.41;5037124;28;20186;-68
2022/04/29 07:04:29;;;;;;;10.50;9.50;;;;;;;12.52;62.37;95450.75;5036655;28;20191;-67
2022/04/29 07:06:58;;;;;;;11.15;10.05;;;;;;;12.57;62.50;95455.25;5036982;28;20190;-69
2022/04/29 07:09:26;;;;;;;11.55;10.45;;;;;;;12.62;61.97;95452.19;5019582;28;20187;-67
2022/04/29 07:11:56;;;;;;;10.57;9.60;;;;;;;12.68;62.65;95448.81;5036396;28;20606;-70
2022/04/29 07:14:27;;;;;;;10.73;9.73;;;;;;;12.72;63.28;95446.94;5036431;28;20191;-68
2022/04/29 07:16:55;;;;;;;11.68;10.55;;;;;;;12.82;63.16;95444.75;5036424;28;20190;-68
2022/04/29 07:19:27;;;;;;;11.40;10.25;;;;;;;12.86;62.09;95442.91;5036642;28;20194;-68
2022/04/29 07:21:55;;;;;;;9.15;8.35;;;;;;;12.76;60.02;95447.81;5018589;28;20544;-68
2022/04/29 07:24:23;;;;;;;9.45;8.55;;;;;;;12.79;60.54;95439.97;5018516;28;20324;-68
2022/04/29 07:26:52;;;;;;;9.35;8.48;;;;;;;12.90;61.07;95441.03;5036083;28;20238;-68
2022/04/29 07:29:20;;;;;;;10.25;9.35;;;;;;;12.93;59.98;95441.13;5036346;28;20254;-68
2022/04/29 07:31:48;;;;;;;10.38;8.55;;;;;;;12.87;60.98;95441.75;5019084;28;20293;-67
2022/04/29 07:34:16;;;;;;;9.73;8.73;;;;;;;12.92;60.80;95435.91;5036485;28;20516;-69
2022/04/29 07:42:18;;;;;;;10.05;9.05;;;;;;;13.09;59.36;95435.53;5036441;28;20213;-68
2022/04/29 07:44:47;;;;;;;9.90;9.00;;;;;;;13.10;59.17;95437.13;5035473;28;20225;-68
2022/04/29 07:47:14;;;;;;;9.73;8.80;;;;;;;13.12;58.94;95436.81;5036067;28;20657;-67
2022/04/29 07:49:43;;;;;;;9.13;8.30;;;;;;;13.10;57.64;95439.91;5035683;28;20281;-70
2022/04/29 07:52:13;;;;;;;8.95;8.20;;;;;;;13.09;57.70;95443.06;5035086;28;20440;-68
2022/04/29 07:54:43;;;;;;;9.63;8.65;;;;;;;13.07;57.55;95434.28;5018655;28;20207;-65
2022/04/29 07:57:11;;;;;;;9.60;8.80;;;;;;;13.06;57.51;95439.03;5018613;28;20209;-66
2022/04/29 07:59:38;;;;;;;9.40;8.45;;;;;;;13.10;58.11;95436.34;5018808;28;20297;-68
2022/04/29 08:02:07;;;;;;;9.68;8.88;;;;;;;13.12;57.45;95431.25;5019305;28;20205;-70
2022/04/29 08:04:35;;;;;;;9.85;8.95;;;;;;;13.14;57.87;95446.34;5036691;28;20206;-68
2022/04/29 08:07:03;;;;;;;9.43;8.63;;;;;;;13.14;58.38;95431.69;5034957;28;20206;-66
2022/04/29 08:09:35;;;;;;;10.10;9.20;;;;;;;13.23;57.38;95433.13;5035016;28;20202;-66
2022/04/29 08:12:01;;;;;;;10.20;9.20;;;;;;;13.28;56.69;95429.28;5034176;28;20237;-66
2022/04/29 08:14:29;;;;;;;9.65;8.75;;;;;;;13.30;56.29;95426.97;5026587;28;20202;-67
2022/04/29 08:16:56;;;;;;;8.68;7.72;;;;;;;13.29;55.91;95430.91;5017837;28;20234;-69
2022/04/29 08:19:23;;;;;;;8.75;7.95;;;;;;;13.30;55.87;95429.72;5017880;28;20209;-68
2022/04/29 08:21:51;;;;;;;8.45;7.57;;;;;;;13.34;56.33;95429.81;5034368;28;20202;-69
2022/04/29 08:24:19;;;;;;;7.85;7.15;;;;;;;13.40;55.31;95429.16;5034526;28;20218;-69
2022/04/29 08:26:49;;;;;;;7.78;6.97;;;;;;;13.39;55.72;95427.53;5014512;28;20239;-69
2022/04/29 08:29:17;;;;;;;7.07;6.45;;;;;;;13.35;55.56;95421.13;5016840;28;20202;-69
2022/04/29 08:31:46;;;;;;;7.25;6.65;;;;;;;13.43;56.43;95424.84;5018115;28;20194;-69
2022/04/29 08:34:17;;;;;;;8.07;7.28;;;;;;;13.47;56.40;95428.50;5035070;28;20191;-69
2022/04/29 08:36:46;;;;;;;7.80;7.10;;;;;;;13.53;55.77;95429.81;5035181;28;20186;-69
2022/04/29 08:39:14;;;;;;;7.88;7.10;;;;;;;13.57;54.84;95424.38;5035107;28;20234;-71
2022/04/29 08:41:43;;;;;;;7.97;7.15;;;;;;;13.60;54.75;95426.41;5017438;28;20210;-69
2022/04/29 08:44:12;;;;;;;7.65;6.90;;;;;;;13.62;54.20;95422.13;5017585;28;20214;-69
2022/04/29 08:46:41;;;;;;;7.22;6.43;;;;;;;13.64;54.61;95414.22;5035112;28;20190;-69
2022/04/29 08:49:11;;;;;;;7.53;6.82;;;;;;;13.69;54.80;95413.94;5035087;28;20182;-69
2022/04/29 08:51:39;;;;;;;7.20;6.60;;;;;;;13.76;53.73;95416.03;5017869;28;20191;-67
2022/04/29 08:54:07;;;;;;;6.82;6.22;;;;;;;13.80;53.57;95416.13;5017621;28;20714;-67
2022/04/29 08:59:27;;;;;;;7.72;7.05;;;;;;;13.88;53.51;95417.88;5017353;28;20206;-69
2022/04/29 09:01:56;;;;;;;7.30;6.60;;;;;;;13.86;53.43;95412.69;5017911;28;20270;-68
2022/04/29 09:04:24;;;;;;;7.40;6.70;;;;;;;13.82;53.01;95400.72;5017998;28;20269;-67
2022/04/29 09:06:52;;;;;;;7.68;6.97;;;;;;;13.78;54.00;95399.06;5035506;28;20538;-66
2022/04/29 09:09:22;;;;;;;7.00;6.43;;;;;;;13.78;53.93;95402.63;5018928;28;20210;-68
2022/04/29 09:11:50;;;;;;;7.15;6.55;;;;;;;13.83;53.69;95394.00;5037186;28;20249;-68
2022/04/29 09:14:39;;;;;;;7.35;6.75;;;;;;;13.87;53.98;95399.63;5019352;28;20198;-69
2022/04/29 09:17:05;;;;;;;7.40;6.80;;;;;;;13.87;54.26;95392.13;5019671;28;20198;-69
2022/04/29 09:19:35;;;;;;;7.65;6.95;;;;;;;13.94;52.92;95399.75;5019914;28;20241;-69
2022/04/29 09:22:07;;;;;;;7.90;7.13;;;;;;;13.98;51.95;95395.13;5019605;28;20202;-70
2022/04/29 09:24:36;;;;;;;7.55;6.95;;;;;;;14.01;52.25;95399.09;5029920;28;20274;-69
2022/04/29 09:27:06;;;;;;;7.35;6.65;;;;;;;14.02;52.19;95398.75;5019341;28;20641;-69
2022/04/29 09:29:42;;;;;;;7.55;6.82;;;;;;;14.05;52.22;95389.72;5021971;28;20559;-68
2022/04/29 09:32:11;;;;;;;7.32;6.72;;;;;;;14.06;51.59;95396.84;5039377;28;20182;-67
2022/04/29 09:34:47;;;;;;;6.80;6.20;;;;;;;14.02;51.11;95395.97;5022633;28;20218;-67
2022/04/29 09:37:15;;;;;;;7.85;7.15;;;;;;;14.04;51.31;95395.59;5022229;28;20194;-67
2022/04/29 09:39:52;;;;;;;6.95;6.35;;;;;;;14.00;51.03;95395.53;5021737;28;20523;-67
2022/04/29 09:42:21;;;;;;;7.30;6.70;;;;;;;14.02;51.81;95397.97;5021870;28;20197;-67
2022/04/29 09:44:51;;;;;;;7.47;6.82;;;;;;;14.06;51.67;95394.06;5021653;28;20223;-70
2022/04/29 09:47:20;;;;;;;7.05;6.45;;;;;;;14.08;49.52;95399.25;5038516;28;20277;-69
2022/04/29 09:49:58;;;;;;;9.77;8.77;;;;;;;14.09;49.56;95400.84;5038472;28;20198;-68
2022/04/29 09:52:30;;;;;;;13.40;11.90;;;;;;;14.21;51.91;95403.47;5037944;28;20575;-68
2022/04/29 09:55:10;;;;;;;12.95;11.00;;;;;;;14.34;53.43;95399.34;5037965;28;20610;-69
2022/04/29 09:57:48;;;;;;;10.35;9.32;;;;;;;14.37;51.30;95395.81;5037528;28;20632;-68
2022/04/29 10:00:18;;;;;;;8.43;7.72;;;;;;;14.38;51.21;95391.09;5020630;28;20198;-69
2022/04/29 10:02:48;;;;;;;7.70;7.00;;;;;;;14.39;50.77;95387.94;5021785;28;20210;-69
2022/04/29 10:05:17;;;;;;;7.13;6.63;;;;;;;14.40;51.19;95385.97;5021805;28;20637;-68
2022/04/29 10:07:49;;;;;;;6.43;5.90;;;;;;;14.39;50.52;95385.16;5020795;28;20203;-70
2022/04/29 10:10:20;;;;;;;6.88;6.18;;;;;;;14.30;50.46;95383.78;5037597;28;20187;-71
2022/04/29 10:12:50;;;;;;;7.75;7.00;;;;;;;14.30;51.95;95378.25;5020434;28;20190;-69
2022/04/29 10:15:21;;;;;;;7.28;6.57;;;;;;;14.29;51.58;95376.66;5037827;28;20273;-69
2022/04/29 10:23:36;;;;;;;7.60;6.95;;;;;;;14.45;51.39;95369.81;4996619;28;20241;-66
2022/04/29 10:26:03;;;;;;;7.10;6.50;;;;;;;14.52;52.48;95371.91;5034291;28;20257;-66
2022/04/29 10:28:32;;;;;;;6.47;5.97;;;;;;;14.64;51.30;95368.97;5017699;28;20230;-66
2022/04/29 10:31:06;;;;;;;6.90;6.30;;;;;;;14.67;50.97;95364.66;5017550;28;20202;-66
2022/04/29 10:33:36;;;;;;;7.97;7.32;;;;;;;14.64;51.53;95366.19;5000279;28;20199;-66
2022/04/29 10:36:07;;;;;;;7.88;7.18;;;;;;;14.70;50.87;95363.88;5000152;28;20199;-66
2022/04/29 10:38:37;;;;;;;8.50;7.60;;;;;;;14.78;51.16;95371.19;5017295;28;20195;-66
2022/04/29 10:41:16;;;;;;;8.63;7.75;;;;;;;15.12;52.67;95363.75;5015533;28;20210;-66
2022/04/29 10:44:05;;;;;;;8.80;8.00;;;;;;;15.38;51.57;95364.88;5016464;28;20211;-66
2022/04/29 10:46:36;;;;;;;8.07;7.32;;;;;;;15.47;48.76;95361.81;5015913;28;20249;-66
2022/04/29 10:49:23;;;;;;;7.60;6.93;;;;;;;15.33;48.87;95352.13;5015755;28;20290;-67
2022/04/29 10:51:52;;;;;;;8.70;7.93;;;;;;;15.13;50.23;95354.22;5015847;28;20195;-65
2022/04/29 10:54:50;;;;;;;8.38;7.68;;;;;;;15.08;50.66;95353.75;5015614;28;20179;-65
2022/04/29 10:57:20;;;;;;;8.10;7.35;;;;;;;15.11;49.04;95353.00;5015603;28;20188;-65
2022/04/29 10:59:57;;;;;;;8.27;7.47;;;;;;;15.30;49.67;95349.31;4998465;28;20209;-66
2022/04/29 11:02:31;;;;;;;8.10;7.40;;;;;;;15.39;50.03;95339.47;5015207;28;20199;-66
2022/04/29 11:04:59;;;;;;;7.80;7.10;;;;;;;15.54;49.69;95334.94;4997891;28;20285;-66
2022/04/29 11:07:46;;;;;;;7.70;7.00;;;;;;;15.69;49.13;95340.69;5015214;28;20189;-66
2022/04/29 11:10:19;;;;;;;7.35;6.75;;;;;;;15.87;49.29;95333.34;4998094;28;20202;-66
2022/04/29 11:15:45;;;;;;;7.63;6.93;;;;;;;16.40;49.25;95312.78;4998111;28;20215;-67
2022/04/29 11:18:31;;;;;;;8.43;7.63;;;;;;;16.72;49.81;95325.00;5014965;28;20183;-66
2022/04/29 11:24:40;;;;;;;8.90;7.97;;;;;;;16.74;48.42;95319.88;4997778;28;20202;-65
2022/04/29 11:26:45;;;;;;;8.65;7.90;;;;;;;16.92;46.52;95320.00;5015294;28;20210;-68
2022/04/29 11:29:14;;;;;;;7.72;7.00;;;;;;;17.02;46.20;95316.47;5017583;28;20297;-68
2022/04/29 11:31:41;;;;;;;7.38;6.68;;;;;;;16.99;45.33;95310.88;5033947;28;20200;-67
2022/04/29 11:34:14;;;;;;;7.97;7.30;;;;;;;16.94;47.16;95306.47;5017260;28;20255;-67
2022/04/29 11:36:42;;;;;;;7.70;7.00;;;;;;;16.90;47.73;95302.06;5017746;28;20226;-68
2022/04/29 11:39:10;;;;;;;7.40;6.70;;;;;;;16.92;45.77;95303.28;5035052;28;20194;-69
2022/04/29 11:41:37;;;;;;;7.93;7.30;;;;;;;16.95;44.74;95296.13;5033506;28;20210;-68
2022/04/29 11:44:04;;;;;;;7.93;7.22;;;;;;;17.07;46.67;95296.59;5017326;28;20221;-69
2022/04/29 11:46:32;;;;;;;7.82;7.13;;;;;;;17.22;45.59;95286.34;5034798;28;20197;-66
2022/04/29 11:49:00;;;;;;;7.57;6.97;;;;;;;17.33;45.49;95300.31;5017372;28;20233;-68
2022/04/29 11:51:30;;;;;;;7.63;7.03;;;;;;;17.42;44.82;95294.38;5034694;28;20197;-68
2022/04/29 11:54:00;;;;;;;8.30;7.50;;;;;;;17.46;45.28;95284.81;5034424;28;20482;-69
2022/04/29 11:56:35;;;;;;;8.05;7.38;;;;;;;17.55;45.60;95290.06;5017292;28;20286;-69
2022/04/29 11:59:06;;;;;;;7.68;7.03;;;;;;;17.59;44.01;95285.28;5016894;28;20222;-68
2022/04/29 12:01:33;;;;;;;7.72;7.13;;;;;;;17.65;43.58;95288.50;5016943;28;20194;-68
2022/04/29 12:04:01;;;;;;;7.45;6.63;;;;;;;17.70;42.23;95279.75;5034461;28;20217;-70
2022/04/29 12:06:29;;;;;;;7.15;6.55;;;;;;;17.72;44.14;95278.16;5034366;28;20213;-68